sensor_id;sensor_type;location;lat;lon;timestamp;temperature;humidity
26099;DHT22;13860;52.370;6.764;2023-12-14T00:01:05;7.10;91.80
26099;DHT22;13860;52.370;6.764;2023-12-14T00:04:15;7.10;91.60
26099;DHT22;13860;52.370;6.764;2023-12-14T00:07:23;7.00;91.80
26099;DHT22;13860;52.370;6.764;2023-12-14T00:10:31;7.10;91.80
26099;DHT22;13860;52.370;6.764;2023-12-14T00:13:37;7.10;92.10
26099;DHT22;13860;52.370;6.764;2023-12-14T00:16:44;7.10;92.00
26099;DHT22;13860;52.370;6.764;2023-12-14T00:19:51;7.10;92.30
26099;DHT22;13860;52.370;6.764;2023-12-14T00:23:01;7.10;93.00
26099;DHT22;13860;52.370;6.764;2023-12-14T00:26:07;6.90;91.40
26099;DHT22;13860;52.370;6.764;2023-12-14T00:29:15;6.90;91.10
26099;DHT22;13860;52.370;6.764;2023-12-14T00:32:20;6.90;91.20
26099;DHT22;13860;52.370;6.764;2023-12-14T00:35:28;6.90;91.30
26099;DHT22;13860;52.370;6.764;2023-12-14T00:38:36;6.90;92.80
26099;DHT22;13860;52.370;6.764;2023-12-14T00:41:44;6.10;92.50
26099;DHT22;13860;52.370;6.764;2023-12-14T00:44:49;6.90;92.90
26099;DHT22;13860;52.370;6.764;2023-12-14T00:47:57;6.70;92.10
26099;DHT22;13860;52.370;6.764;2023-12-14T00:51:03;7.40;91.60
26099;DHT22;13860;52.370;6.764;2023-12-14T00:54:14;6.70;91.10
26099;DHT22;13860;52.370;6.764;2023-12-14T00:57:20;6.70;91.10
26099;DHT22;13860;52.370;6.764;2023-12-14T01:00:28;6.70;91.10
26099;DHT22;13860;52.370;6.764;2023-12-14T01:03:33;6.70;91.00
26099;DHT22;13860;52.370;6.764;2023-12-14T01:06:41;6.70;91.00
26099;DHT22;13860;52.370;6.764;2023-12-14T01:09:49;6.60;91.00
26099;DHT22;13860;52.370;6.764;2023-12-14T01:12:57;6.60;91.70
26099;DHT22;13860;52.370;6.764;2023-12-14T01:16:03;6.70;91.10
26099;DHT22;13860;52.370;6.764;2023-12-14T01:19:11;6.60;91.00
26099;DHT22;13860;52.370;6.764;2023-12-14T01:22:16;6.60;91.00
26099;DHT22;13860;52.370;6.764;2023-12-14T01:25:27;6.60;91.00
26099;DHT22;13860;52.370;6.764;2023-12-14T01:28:32;6.90;93.60
26099;DHT22;13860;52.370;6.764;2023-12-14T01:31:40;6.70;92.10
26099;DHT22;13860;52.370;6.764;2023-12-14T01:34:46;6.60;91.00
26099;DHT22;13860;52.370;6.764;2023-12-14T01:37:54;6.60;91.00
26099;DHT22;13860;52.370;6.764;2023-12-14T01:41:02;6.50;90.90
26099;DHT22;13860;52.370;6.764;2023-12-14T01:44:10;6.60;91.00
26099;DHT22;13860;52.370;6.764;2023-12-14T01:47:17;6.50;90.90
26099;DHT22;13860;52.370;6.764;2023-12-14T01:50:25;6.50;90.90
26099;DHT22;13860;52.370;6.764;2023-12-14T01:53:30;6.50;90.90
26099;DHT22;13860;52.370;6.764;2023-12-14T01:56:41;6.50;90.90
26099;DHT22;13860;52.370;6.764;2023-12-14T01:59:46;6.50;90.90
26099;DHT22;13860;52.370;6.764;2023-12-14T02:02:54;6.50;90.90
26099;DHT22;13860;52.370;6.764;2023-12-14T02:05:59;6.60;90.90
26099;DHT22;13860;52.370;6.764;2023-12-14T02:09:07;6.60;91.00
26099;DHT22;13860;52.370;6.764;2023-12-14T02:12:15;6.60;90.90
26099;DHT22;13860;52.370;6.764;2023-12-14T02:15:23;6.60;90.90
26099;DHT22;13860;52.370;6.764;2023-12-14T02:18:28;6.60;90.90
26099;DHT22;13860;52.370;6.764;2023-12-14T02:21:36;6.60;90.90
26099;DHT22;13860;52.370;6.764;2023-12-14T02:24:44;6.60;90.90
26099;DHT22;13860;52.370;6.764;2023-12-14T02:27:52;6.50;90.90
26099;DHT22;13860;52.370;6.764;2023-12-14T02:30:57;6.60;90.90
26099;DHT22;13860;52.370;6.764;2023-12-14T02:34:05;6.60;91.00
26099;DHT22;13860;52.370;6.764;2023-12-14T02:37:11;6.60;90.90
26099;DHT22;13860;52.370;6.764;2023-12-14T02:40:21;6.60;90.90
26099;DHT22;13860;52.370;6.764;2023-12-14T02:43:26;6.60;90.90
26099;DHT22;13860;52.370;6.764;2023-12-14T02:46:34;6.60;91.00
26099;DHT22;13860;52.370;6.764;2023-12-14T02:49:39;6.60;91.00
26099;DHT22;13860;52.370;6.764;2023-12-14T02:52:47;6.60;91.10
26099;DHT22;13860;52.370;6.764;2023-12-14T02:55:55;6.60;91.60
26099;DHT22;13860;52.370;6.764;2023-12-14T02:59:03;6.70;92.70
26099;DHT22;13860;52.370;6.764;2023-12-14T03:02:09;6.80;91.70
26099;DHT22;13860;52.370;6.764;2023-12-14T03:05:16;6.50;90.90
26099;DHT22;13860;52.370;6.764;2023-12-14T03:08:22;6.60;90.80
26099;DHT22;13860;52.370;6.764;2023-12-14T03:11:32;6.60;90.80
26099;DHT22;13860;52.370;6.764;2023-12-14T03:14:38;6.60;90.80
26099;DHT22;13860;52.370;6.764;2023-12-14T03:17:46;6.60;90.80
26099;DHT22;13860;52.370;6.764;2023-12-14T03:20:52;6.60;90.80
26099;DHT22;13860;52.370;6.764;2023-12-14T03:24:00;6.60;90.80
26099;DHT22;13860;52.370;6.764;2023-12-14T03:27:08;6.60;90.90
26099;DHT22;13860;52.370;6.764;2023-12-14T03:30:16;6.60;90.80
26099;DHT22;13860;52.370;6.764;2023-12-14T03:33:21;6.80;91.60
26099;DHT22;13860;52.370;6.764;2023-12-14T03:36:29;6.60;90.80
26099;DHT22;13860;52.370;6.764;2023-12-14T03:39:35;6.60;91.10
26099;DHT22;13860;52.370;6.764;2023-12-14T03:42:45;7.20;91.30
26099;DHT22;13860;52.370;6.764;2023-12-14T03:45:51;6.60;91.00
26099;DHT22;13860;52.370;6.764;2023-12-14T03:48:58;6.60;90.80
26099;DHT22;13860;52.370;6.764;2023-12-14T03:52:05;6.60;91.00
26099;DHT22;13860;52.370;6.764;2023-12-14T03:55:13;6.60;90.90
26099;DHT22;13860;52.370;6.764;2023-12-14T03:58:22;6.60;91.10
26099;DHT22;13860;52.370;6.764;2023-12-14T04:01:30;6.70;91.40
26099;DHT22;13860;52.370;6.764;2023-12-14T04:04:36;6.60;90.70
26099;DHT22;13860;52.370;6.764;2023-12-14T04:07:43;6.60;90.80
26099;DHT22;13860;52.370;6.764;2023-12-14T04:10:49;6.60;90.70
26099;DHT22;13860;52.370;6.764;2023-12-14T04:13:59;6.60;90.70
26099;DHT22;13860;52.370;6.764;2023-12-14T04:17:05;6.60;90.70
26099;DHT22;13860;52.370;6.764;2023-12-14T04:20:13;6.60;90.70
26099;DHT22;13860;52.370;6.764;2023-12-14T04:23:19;6.60;90.70
26099;DHT22;13860;52.370;6.764;2023-12-14T04:26:26;6.60;90.70
26099;DHT22;13860;52.370;6.764;2023-12-14T04:29:35;6.60;90.70
26099;DHT22;13860;52.370;6.764;2023-12-14T04:32:42;6.60;90.70
26099;DHT22;13860;52.370;6.764;2023-12-14T04:35:50;6.60;90.70
26099;DHT22;13860;52.370;6.764;2023-12-14T04:38:57;6.60;90.70
26099;DHT22;13860;52.370;6.764;2023-12-14T04:42:03;6.60;90.70
26099;DHT22;13860;52.370;6.764;2023-12-14T04:45:13;6.60;90.70
26099;DHT22;13860;52.370;6.764;2023-12-14T04:48:19;6.60;90.70
26099;DHT22;13860;52.370;6.764;2023-12-14T04:51:27;6.60;90.70
26099;DHT22;13860;52.370;6.764;2023-12-14T04:54:33;6.60;90.70
26099;DHT22;13860;52.370;6.764;2023-12-14T04:57:43;6.60;90.70
26099;DHT22;13860;52.370;6.764;2023-12-14T05:00:53;6.60;90.70
26099;DHT22;13860;52.370;6.764;2023-12-14T05:04:01;6.60;90.70
26099;DHT22;13860;52.370;6.764;2023-12-14T05:07:07;6.60;90.70
26099;DHT22;13860;52.370;6.764;2023-12-14T05:10:15;6.60;90.70
26099;DHT22;13860;52.370;6.764;2023-12-14T05:13:20;6.60;90.70
26099;DHT22;13860;52.370;6.764;2023-12-14T05:16:30;6.60;90.70
26099;DHT22;13860;52.370;6.764;2023-12-14T05:19:36;6.60;90.70
26099;DHT22;13860;52.370;6.764;2023-12-14T05:22:44;6.60;90.70
26099;DHT22;13860;52.370;6.764;2023-12-14T05:25:49;6.60;90.70
26099;DHT22;13860;52.370;6.764;2023-12-14T05:28:57;6.60;90.70
26099;DHT22;13860;52.370;6.764;2023-12-14T05:32:05;6.60;90.70
26099;DHT22;13860;52.370;6.764;2023-12-14T05:35:13;6.60;90.70
26099;DHT22;13860;52.370;6.764;2023-12-14T05:38:23;6.60;90.70
26099;DHT22;13860;52.370;6.764;2023-12-14T05:41:30;6.60;90.70
26099;DHT22;13860;52.370;6.764;2023-12-14T05:44:36;6.60;90.70
26099;DHT22;13860;52.370;6.764;2023-12-14T05:47:46;6.60;90.70
26099;DHT22;13860;52.370;6.764;2023-12-14T05:50:53;6.60;90.60
26099;DHT22;13860;52.370;6.764;2023-12-14T05:54:01;6.60;90.70
26099;DHT22;13860;52.370;6.764;2023-12-14T05:57:07;6.60;90.70
26099;DHT22;13860;52.370;6.764;2023-12-14T06:00:20;6.60;90.70
26099;DHT22;13860;52.370;6.764;2023-12-14T06:03:28;6.60;90.70
26099;DHT22;13860;52.370;6.764;2023-12-14T06:06:38;6.60;90.70
26099;DHT22;13860;52.370;6.764;2023-12-14T06:09:44;6.60;90.70
26099;DHT22;13860;52.370;6.764;2023-12-14T06:12:52;6.60;90.70
26099;DHT22;13860;52.370;6.764;2023-12-14T06:15:57;6.60;90.70
26099;DHT22;13860;52.370;6.764;2023-12-14T06:19:08;6.70;90.70
26099;DHT22;13860;52.370;6.764;2023-12-14T06:22:13;6.60;90.70
26099;DHT22;13860;52.370;6.764;2023-12-14T06:25:21;6.60;91.00
26099;DHT22;13860;52.370;6.764;2023-12-14T06:28:26;6.70;92.30
26099;DHT22;13860;52.370;6.764;2023-12-14T06:31:35;8.10;93.80
26099;DHT22;13860;52.370;6.764;2023-12-14T06:34:43;6.70;95.20
26099;DHT22;13860;52.370;6.764;2023-12-14T06:37:50;6.70;92.90
26099;DHT22;13860;52.370;6.764;2023-12-14T06:40:56;6.70;93.80
26099;DHT22;13860;52.370;6.764;2023-12-14T06:44:04;6.70;95.80
26099;DHT22;13860;52.370;6.764;2023-12-14T06:47:12;6.60;94.00
26099;DHT22;13860;52.370;6.764;2023-12-14T06:50:22;6.70;94.00
26099;DHT22;13860;52.370;6.764;2023-12-14T06:53:28;6.60;95.60
26099;DHT22;13860;52.370;6.764;2023-12-14T06:56:36;6.60;92.70
26099;DHT22;13860;52.370;6.764;2023-12-14T06:59:42;6.50;92.40
26099;DHT22;13860;52.370;6.764;2023-12-14T07:02:49;6.50;92.50
26099;DHT22;13860;52.370;6.764;2023-12-14T07:05:58;6.50;93.00
26099;DHT22;13860;52.370;6.764;2023-12-14T07:09:06;6.50;93.30
26099;DHT22;13860;52.370;6.764;2023-12-14T07:12:12;6.40;94.30
26099;DHT22;13860;52.370;6.764;2023-12-14T07:15:19;6.50;95.00
26099;DHT22;13860;52.370;6.764;2023-12-14T07:18:25;6.40;95.40
26099;DHT22;13860;52.370;6.764;2023-12-14T07:21:35;6.30;91.80
26099;DHT22;13860;52.370;6.764;2023-12-14T07:24:41;6.40;92.90
26099;DHT22;13860;52.370;6.764;2023-12-14T07:28:00;6.60;92.80
26099;DHT22;13860;52.370;6.764;2023-12-14T07:31:05;6.40;93.10
26099;DHT22;13860;52.370;6.764;2023-12-14T07:34:13;6.50;93.80
26099;DHT22;13860;52.370;6.764;2023-12-14T07:37:21;6.40;93.60
26099;DHT22;13860;52.370;6.764;2023-12-14T07:40:29;6.50;94.00
26099;DHT22;13860;52.370;6.764;2023-12-14T07:43:35;6.30;91.70
26099;DHT22;13860;52.370;6.764;2023-12-14T07:46:43;6.40;91.80
26099;DHT22;13860;52.370;6.764;2023-12-14T07:49:49;6.40;91.90
26099;DHT22;13860;52.370;6.764;2023-12-14T07:52:59;6.40;93.00
26099;DHT22;13860;52.370;6.764;2023-12-14T07:56:06;6.30;91.80
26099;DHT22;13860;52.370;6.764;2023-12-14T07:59:15;6.30;92.10
26099;DHT22;13860;52.370;6.764;2023-12-14T08:02:20;6.30;91.00
26099;DHT22;13860;52.370;6.764;2023-12-14T08:05:28;6.40;93.00
26099;DHT22;13860;52.370;6.764;2023-12-14T08:08:36;6.30;90.90
26099;DHT22;13860;52.370;6.764;2023-12-14T08:11:44;6.40;91.90
26099;DHT22;13860;52.370;6.764;2023-12-14T08:14:49;6.70;92.20
26099;DHT22;13860;52.370;6.764;2023-12-14T08:17:57;6.30;90.60
26099;DHT22;13860;52.370;6.764;2023-12-14T08:21:03;6.30;90.50
26099;DHT22;13860;52.370;6.764;2023-12-14T08:24:17;6.30;90.50
26099;DHT22;13860;52.370;6.764;2023-12-14T08:27:22;6.40;90.50
26099;DHT22;13860;52.370;6.764;2023-12-14T08:30:30;6.30;90.80
26099;DHT22;13860;52.370;6.764;2023-12-14T08:33:36;6.30;91.00
26099;DHT22;13860;52.370;6.764;2023-12-14T08:36:43;6.40;91.70
26099;DHT22;13860;52.370;6.764;2023-12-14T08:39:51;6.50;92.10
26099;DHT22;13860;52.370;6.764;2023-12-14T08:43:00;6.50;93.60
26099;DHT22;13860;52.370;6.764;2023-12-14T08:46:05;6.50;91.90
26099;DHT22;13860;52.370;6.764;2023-12-14T08:49:14;6.50;93.10
26099;DHT22;13860;52.370;6.764;2023-12-14T08:52:20;6.50;92.40
26099;DHT22;13860;52.370;6.764;2023-12-14T08:55:30;6.60;92.50
26099;DHT22;13860;52.370;6.764;2023-12-14T08:58:35;6.60;92.30
26099;DHT22;13860;52.370;6.764;2023-12-14T09:01:43;7.50;93.00
26099;DHT22;13860;52.370;6.764;2023-12-14T09:04:48;6.40;90.50
26099;DHT22;13860;52.370;6.764;2023-12-14T09:07:56;6.40;90.50
26099;DHT22;13860;52.370;6.764;2023-12-14T09:11:04;6.40;90.80
26099;DHT22;13860;52.370;6.764;2023-12-14T09:14:13;6.60;93.50
26099;DHT22;13860;52.370;6.764;2023-12-14T09:17:19;6.60;95.30
26099;DHT22;13860;52.370;6.764;2023-12-14T09:20:27;6.60;91.70
26099;DHT22;13860;52.370;6.764;2023-12-14T09:23:33;6.60;94.00
26099;DHT22;13860;52.370;6.764;2023-12-14T09:26:43;6.50;91.40
26099;DHT22;13860;52.370;6.764;2023-12-14T09:29:49;6.40;90.80
26099;DHT22;13860;52.370;6.764;2023-12-14T09:32:56;6.60;92.40
26099;DHT22;13860;52.370;6.764;2023-12-14T09:36:03;7.10;96.60
26099;DHT22;13860;52.370;6.764;2023-12-14T09:39:11;6.50;91.90
26099;DHT22;13860;52.370;6.764;2023-12-14T09:42:21;6.50;92.20
26099;DHT22;13860;52.370;6.764;2023-12-14T09:45:29;7.00;91.00
26099;DHT22;13860;52.370;6.764;2023-12-14T09:48:36;6.40;90.30
26099;DHT22;13860;52.370;6.764;2023-12-14T09:51:43;6.40;90.30
26099;DHT22;13860;52.370;6.764;2023-12-14T09:54:49;6.40;90.30
26099;DHT22;13860;52.370;6.764;2023-12-14T09:58:02;6.40;90.30
26099;DHT22;13860;52.370;6.764;2023-12-14T10:01:21;6.40;90.20
26099;DHT22;13860;52.370;6.764;2023-12-14T10:04:32;6.40;90.20
26099;DHT22;13860;52.370;6.764;2023-12-14T10:07:41;6.50;90.30
26099;DHT22;13860;52.370;6.764;2023-12-14T10:10:51;6.50;90.30
26099;DHT22;13860;52.370;6.764;2023-12-14T10:14:01;6.50;90.40
26099;DHT22;13860;52.370;6.764;2023-12-14T10:17:19;6.60;90.80
26099;DHT22;13860;52.370;6.764;2023-12-14T10:20:27;6.60;91.90
26099;DHT22;13860;52.370;6.764;2023-12-14T10:23:35;6.70;91.50
26099;DHT22;13860;52.370;6.764;2023-12-14T10:26:45;6.60;92.40
26099;DHT22;13860;52.370;6.764;2023-12-14T10:29:55;6.70;93.50
26099;DHT22;13860;52.370;6.764;2023-12-14T10:33:01;6.60;92.80
26099;DHT22;13860;52.370;6.764;2023-12-14T10:36:10;6.70;93.20
26099;DHT22;13860;52.370;6.764;2023-12-14T10:39:15;6.70;95.30
26099;DHT22;13860;52.370;6.764;2023-12-14T10:42:26;6.70;93.80
26099;DHT22;13860;52.370;6.764;2023-12-14T10:45:35;6.70;93.90
26099;DHT22;13860;52.370;6.764;2023-12-14T10:48:45;6.70;94.20
26099;DHT22;13860;52.370;6.764;2023-12-14T10:51:54;6.70;94.60
26099;DHT22;13860;52.370;6.764;2023-12-14T10:55:06;6.80;94.00
26099;DHT22;13860;52.370;6.764;2023-12-14T10:58:13;6.80;93.70
26099;DHT22;13860;52.370;6.764;2023-12-14T11:01:24;6.90;94.00
26099;DHT22;13860;52.370;6.764;2023-12-14T11:04:30;6.80;94.30
26099;DHT22;13860;52.370;6.764;2023-12-14T11:07:44;6.80;92.50
26099;DHT22;13860;52.370;6.764;2023-12-14T11:10:54;6.70;90.60
26099;DHT22;13860;52.370;6.764;2023-12-14T11:14:02;6.80;92.20
26099;DHT22;13860;52.370;6.764;2023-12-14T11:17:10;6.70;90.80
26099;DHT22;13860;52.370;6.764;2023-12-14T11:20:24;6.70;90.70
26099;DHT22;13860;52.370;6.764;2023-12-14T11:23:32;6.80;90.80
26099;DHT22;13860;52.370;6.764;2023-12-14T11:26:40;6.80;91.00
26099;DHT22;13860;52.370;6.764;2023-12-14T11:29:48;6.80;91.30
26099;DHT22;13860;52.370;6.764;2023-12-14T11:32:58;6.80;91.80
26099;DHT22;13860;52.370;6.764;2023-12-14T11:36:05;7.30;92.10
26099;DHT22;13860;52.370;6.764;2023-12-14T11:39:13;6.90;91.70
26099;DHT22;13860;52.370;6.764;2023-12-14T11:42:18;6.90;91.00
26099;DHT22;13860;52.370;6.764;2023-12-14T11:45:26;6.90;91.40
26099;DHT22;13860;52.370;6.764;2023-12-14T11:48:35;7.00;91.90
26099;DHT22;13860;52.370;6.764;2023-12-14T11:51:45;7.00;92.10
26099;DHT22;13860;52.370;6.764;2023-12-14T11:54:51;6.80;90.30
26099;DHT22;13860;52.370;6.764;2023-12-14T11:58:00;6.80;89.90
26099;DHT22;13860;52.370;6.764;2023-12-14T12:01:14;6.80;89.90
26099;DHT22;13860;52.370;6.764;2023-12-14T12:04:25;6.80;90.00
26099;DHT22;13860;52.370;6.764;2023-12-14T12:07:30;6.80;90.90
26099;DHT22;13860;52.370;6.764;2023-12-14T12:10:41;6.80;90.30
26099;DHT22;13860;52.370;6.764;2023-12-14T12:13:51;6.80;90.50
26099;DHT22;13860;52.370;6.764;2023-12-14T12:16:59;6.80;90.30
26099;DHT22;13860;52.370;6.764;2023-12-14T12:20:08;6.90;90.90
26099;DHT22;13860;52.370;6.764;2023-12-14T12:23:16;6.80;90.50
26099;DHT22;13860;52.370;6.764;2023-12-14T12:26:22;6.90;92.20
26099;DHT22;13860;52.370;6.764;2023-12-14T12:29:30;7.40;92.40
26099;DHT22;13860;52.370;6.764;2023-12-14T12:32:35;6.90;91.40
26099;DHT22;13860;52.370;6.764;2023-12-14T12:35:46;6.70;89.80
26099;DHT22;13860;52.370;6.764;2023-12-14T12:38:52;6.70;89.90
26099;DHT22;13860;52.370;6.764;2023-12-14T12:41:59;7.10;92.20
26099;DHT22;13860;52.370;6.764;2023-12-14T12:45:06;7.10;92.10
26099;DHT22;13860;52.370;6.764;2023-12-14T12:48:15;6.90;91.50
26099;DHT22;13860;52.370;6.764;2023-12-14T12:51:23;6.90;91.60
26099;DHT22;13860;52.370;6.764;2023-12-14T12:54:31;6.90;91.70
26099;DHT22;13860;52.370;6.764;2023-12-14T12:57:37;7.10;91.30
26099;DHT22;13860;52.370;6.764;2023-12-14T13:00:46;6.80;90.70
26099;DHT22;13860;52.370;6.764;2023-12-14T13:03:55;6.90;90.80
26099;DHT22;13860;52.370;6.764;2023-12-14T13:07:06;6.80;90.90
26099;DHT22;13860;52.370;6.764;2023-12-14T13:10:11;6.80;91.00
26099;DHT22;13860;52.370;6.764;2023-12-14T13:13:34;6.90;91.20
26099;DHT22;13860;52.370;6.764;2023-12-14T13:16:40;6.90;90.30
26099;DHT22;13860;52.370;6.764;2023-12-14T13:19:48;6.80;90.80
26099;DHT22;13860;52.370;6.764;2023-12-14T13:22:57;6.80;91.60
26099;DHT22;13860;52.370;6.764;2023-12-14T13:26:05;6.80;90.20
26099;DHT22;13860;52.370;6.764;2023-12-14T13:29:10;6.80;90.60
26099;DHT22;13860;52.370;6.764;2023-12-14T13:32:18;6.80;90.50
26099;DHT22;13860;52.370;6.764;2023-12-14T13:35:24;6.90;91.40
26099;DHT22;13860;52.370;6.764;2023-12-14T13:38:35;6.80;90.40
26099;DHT22;13860;52.370;6.764;2023-12-14T13:41:41;6.70;90.20
26099;DHT22;13860;52.370;6.764;2023-12-14T13:44:54;6.90;90.40
26099;DHT22;13860;52.370;6.764;2023-12-14T13:47:59;6.80;90.70
26099;DHT22;13860;52.370;6.764;2023-12-14T13:51:07;6.80;91.40
26099;DHT22;13860;52.370;6.764;2023-12-14T13:54:15;6.80;90.10
26099;DHT22;13860;52.370;6.764;2023-12-14T13:57:22;6.80;90.20
26099;DHT22;13860;52.370;6.764;2023-12-14T14:00:30;6.80;90.00
26099;DHT22;13860;52.370;6.764;2023-12-14T14:03:41;6.80;90.10
26099;DHT22;13860;52.370;6.764;2023-12-14T14:06:49;6.90;90.20
26099;DHT22;13860;52.370;6.764;2023-12-14T14:09:59;6.80;90.20
26099;DHT22;13860;52.370;6.764;2023-12-14T14:13:05;6.80;90.20
26099;DHT22;13860;52.370;6.764;2023-12-14T14:16:13;6.90;90.30
26099;DHT22;13860;52.370;6.764;2023-12-14T14:19:19;6.90;90.50
26099;DHT22;13860;52.370;6.764;2023-12-14T14:22:27;6.90;90.50
26099;DHT22;13860;52.370;6.764;2023-12-14T14:25:35;6.90;90.60
26099;DHT22;13860;52.370;6.764;2023-12-14T14:28:42;6.90;90.90
26099;DHT22;13860;52.370;6.764;2023-12-14T14:31:49;6.90;90.80
26099;DHT22;13860;52.370;6.764;2023-12-14T14:34:56;6.90;91.00
26099;DHT22;13860;52.370;6.764;2023-12-14T14:38:03;7.00;91.40
26099;DHT22;13860;52.370;6.764;2023-12-14T14:41:14;6.90;90.70
26099;DHT22;13860;52.370;6.764;2023-12-14T14:44:19;7.00;90.70
26099;DHT22;13860;52.370;6.764;2023-12-14T14:47:28;6.90;90.50
26099;DHT22;13860;52.370;6.764;2023-12-14T14:50:33;7.00;91.00
26099;DHT22;13860;52.370;6.764;2023-12-14T14:53:41;7.10;90.70
26099;DHT22;13860;52.370;6.764;2023-12-14T14:56:50;6.90;90.40
26099;DHT22;13860;52.370;6.764;2023-12-14T14:59:57;6.90;90.40
26099;DHT22;13860;52.370;6.764;2023-12-14T15:03:03;6.90;90.90
26099;DHT22;13860;52.370;6.764;2023-12-14T15:06:14;7.00;91.80
26099;DHT22;13860;52.370;6.764;2023-12-14T15:09:19;7.00;91.00
26099;DHT22;13860;52.370;6.764;2023-12-14T15:12:29;7.00;92.30
26099;DHT22;13860;52.370;6.764;2023-12-14T15:15:36;6.90;92.50
26099;DHT22;13860;52.370;6.764;2023-12-14T15:18:44;7.00;91.70
26099;DHT22;13860;52.370;6.764;2023-12-14T15:21:50;6.80;90.10
26099;DHT22;13860;52.370;6.764;2023-12-14T15:24:57;6.80;90.10
26099;DHT22;13860;52.370;6.764;2023-12-14T15:28:06;6.80;90.10
26099;DHT22;13860;52.370;6.764;2023-12-14T15:31:13;6.80;90.30
26099;DHT22;13860;52.370;6.764;2023-12-14T15:34:19;6.80;90.50
26099;DHT22;13860;52.370;6.764;2023-12-14T15:37:26;6.90;90.40
26099;DHT22;13860;52.370;6.764;2023-12-14T15:40:32;6.80;90.70
26099;DHT22;13860;52.370;6.764;2023-12-14T15:43:43;6.80;90.70
26099;DHT22;13860;52.370;6.764;2023-12-14T15:46:48;6.80;91.10
26099;DHT22;13860;52.370;6.764;2023-12-14T15:49:56;6.90;91.60
26099;DHT22;13860;52.370;6.764;2023-12-14T15:53:02;6.90;92.30
26099;DHT22;13860;52.370;6.764;2023-12-14T15:56:09;6.70;90.90
26099;DHT22;13860;52.370;6.764;2023-12-14T15:59:18;6.70;90.90
26099;DHT22;13860;52.370;6.764;2023-12-14T16:02:25;6.60;91.00
26099;DHT22;13860;52.370;6.764;2023-12-14T16:05:31;6.70;91.30
26099;DHT22;13860;52.370;6.764;2023-12-14T16:08:39;6.60;91.10
26099;DHT22;13860;52.370;6.764;2023-12-14T16:11:44;6.60;91.30
26099;DHT22;13860;52.370;6.764;2023-12-14T16:14:55;6.50;91.40
26099;DHT22;13860;52.370;6.764;2023-12-14T16:18:00;6.50;91.30
26099;DHT22;13860;52.370;6.764;2023-12-14T16:21:09;6.50;91.50
26099;DHT22;13860;52.370;6.764;2023-12-14T16:24:16;6.50;91.70
26099;DHT22;13860;52.370;6.764;2023-12-14T16:27:24;6.40;91.80
26099;DHT22;13860;52.370;6.764;2023-12-14T16:30:32;6.40;92.10
26099;DHT22;13860;52.370;6.764;2023-12-14T16:33:40;6.30;91.90
26099;DHT22;13860;52.370;6.764;2023-12-14T16:36:47;6.20;92.50
26099;DHT22;13860;52.370;6.764;2023-12-14T16:39:55;6.00;90.10
26099;DHT22;13860;52.370;6.764;2023-12-14T16:43:00;6.00;90.30
26099;DHT22;13860;52.370;6.764;2023-12-14T16:46:11;6.00;90.80
26099;DHT22;13860;52.370;6.764;2023-12-14T16:49:21;6.10;91.30
26099;DHT22;13860;52.370;6.764;2023-12-14T16:52:28;5.90;90.20
26099;DHT22;13860;52.370;6.764;2023-12-14T16:55:34;6.10;92.50
26099;DHT22;13860;52.370;6.764;2023-12-14T16:58:42;6.10;92.60
26099;DHT22;13860;52.370;6.764;2023-12-14T17:01:50;6.00;92.20
26099;DHT22;13860;52.370;6.764;2023-12-14T17:04:58;6.00;92.00
26099;DHT22;13860;52.370;6.764;2023-12-14T17:08:06;5.90;91.30
26099;DHT22;13860;52.370;6.764;2023-12-14T17:11:13;5.90;91.00
26099;DHT22;13860;52.370;6.764;2023-12-14T17:14:19;5.90;91.30
26099;DHT22;13860;52.370;6.764;2023-12-14T17:17:30;6.00;91.10
26099;DHT22;13860;52.370;6.764;2023-12-14T17:20:38;5.90;91.30
26099;DHT22;13860;52.370;6.764;2023-12-14T17:23:45;6.00;92.00
26099;DHT22;13860;52.370;6.764;2023-12-14T17:26:51;5.90;92.00
26099;DHT22;13860;52.370;6.764;2023-12-14T17:30:00;5.90;91.90
26099;DHT22;13860;52.370;6.764;2023-12-14T17:33:08;5.90;92.50
26099;DHT22;13860;52.370;6.764;2023-12-14T17:36:17;6.10;92.70
26099;DHT22;13860;52.370;6.764;2023-12-14T17:39:22;5.90;94.90
26099;DHT22;13860;52.370;6.764;2023-12-14T17:42:30;5.90;94.90
26099;DHT22;13860;52.370;6.764;2023-12-14T17:45:38;5.90;94.50
26099;DHT22;13860;52.370;6.764;2023-12-14T17:48:48;6.00;94.60
26099;DHT22;13860;52.370;6.764;2023-12-14T17:51:54;5.90;94.10
26099;DHT22;13860;52.370;6.764;2023-12-14T17:55:01;6.10;94.20
26099;DHT22;13860;52.370;6.764;2023-12-14T17:58:07;5.90;95.10
26099;DHT22;13860;52.370;6.764;2023-12-14T18:01:15;5.50;89.30
26099;DHT22;13860;52.370;6.764;2023-12-14T18:04:23;5.70;90.00
26099;DHT22;13860;52.370;6.764;2023-12-14T18:07:31;5.70;89.90
26099;DHT22;13860;52.370;6.764;2023-12-14T18:10:37;5.70;89.90
26099;DHT22;13860;52.370;6.764;2023-12-14T18:13:45;5.70;90.00
26099;DHT22;13860;52.370;6.764;2023-12-14T18:16:50;5.70;90.00
26099;DHT22;13860;52.370;6.764;2023-12-14T18:20:00;5.70;90.00
26099;DHT22;13860;52.370;6.764;2023-12-14T18:23:06;5.80;90.00
26099;DHT22;13860;52.370;6.764;2023-12-14T18:26:14;5.80;90.00
26099;DHT22;13860;52.370;6.764;2023-12-14T18:29:20;5.80;90.00
26099;DHT22;13860;52.370;6.764;2023-12-14T18:32:28;5.80;90.00
26099;DHT22;13860;52.370;6.764;2023-12-14T18:35:36;5.80;90.00
26099;DHT22;13860;52.370;6.764;2023-12-14T18:38:44;5.80;90.00
26099;DHT22;13860;52.370;6.764;2023-12-14T18:41:49;5.80;90.00
26099;DHT22;13860;52.370;6.764;2023-12-14T18:44:57;5.80;90.00
26099;DHT22;13860;52.370;6.764;2023-12-14T18:48:03;5.80;90.00
26099;DHT22;13860;52.370;6.764;2023-12-14T18:51:13;5.80;90.00
26099;DHT22;13860;52.370;6.764;2023-12-14T18:54:19;5.80;90.00
26099;DHT22;13860;52.370;6.764;2023-12-14T18:57:28;5.80;90.00
26099;DHT22;13860;52.370;6.764;2023-12-14T19:00:33;5.90;90.00
26099;DHT22;13860;52.370;6.764;2023-12-14T19:03:41;5.90;90.10
26099;DHT22;13860;52.370;6.764;2023-12-14T19:06:49;5.90;90.10
26099;DHT22;13860;52.370;6.764;2023-12-14T19:09:57;5.90;90.10
26099;DHT22;13860;52.370;6.764;2023-12-14T19:13:06;5.90;90.10
26099;DHT22;13860;52.370;6.764;2023-12-14T19:16:21;5.90;90.10
26099;DHT22;13860;52.370;6.764;2023-12-14T19:19:27;6.00;90.10
26099;DHT22;13860;52.370;6.764;2023-12-14T19:22:38;5.90;90.10
26099;DHT22;13860;52.370;6.764;2023-12-14T19:25:43;5.90;90.10
26099;DHT22;13860;52.370;6.764;2023-12-14T19:28:53;5.90;90.00
26099;DHT22;13860;52.370;6.764;2023-12-14T19:31:58;6.00;90.10
26099;DHT22;13860;52.370;6.764;2023-12-14T19:35:07;5.90;90.10
26099;DHT22;13860;52.370;6.764;2023-12-14T19:38:15;6.00;90.10
26099;DHT22;13860;52.370;6.764;2023-12-14T19:41:23;6.00;90.10
26099;DHT22;13860;52.370;6.764;2023-12-14T19:44:29;6.00;90.10
26099;DHT22;13860;52.370;6.764;2023-12-14T19:47:36;6.00;90.10
26099;DHT22;13860;52.370;6.764;2023-12-14T19:50:44;6.00;90.10
26099;DHT22;13860;52.370;6.764;2023-12-14T19:53:54;6.00;90.10
26099;DHT22;13860;52.370;6.764;2023-12-14T19:57:00;6.00;90.10
26099;DHT22;13860;52.370;6.764;2023-12-14T20:00:08;6.10;90.10
26099;DHT22;13860;52.370;6.764;2023-12-14T20:03:14;6.10;90.10